»·PEaware :: N1510Q KCMA-KSNA

N1510Q :: KCMA-KSNA

FLIGHT INFORMATION

Flight Status: Arrived
Operator: Privately registered:
United States
More flights under this callsign
Pilot: Todd H. (25818)
Aircraft: CESSNA 172 SKYHAWK
(C172)
More flights by this aircraft type
Origin: KCMA Camarillo
United States
Destination: KSNA John Wayne-Orange Co
United States
More flights between these airports :: More routes between these airports
Route: COASTAL
File this flight plan on PilotEdge
Remarks:
Altitude:
(Current/Filed)
5,500ft
Speed:
(Current/Filed)
85kts
Departed: 22-May-20 05:35 PM
Arrived: 22-May-20 06:35 PM
Distance/Time
Traveled:
69nm/1:00
Distance/Time
To Go:
Arrived

Flight Plot

Page will automatically refresh every two minutes.


Map Options




Map Legend


Flown Route
Filed Route
Departure Airport
Arrival Airport
Navaid (VOR, NDB)
Fix

Horizontal Profiles

Position Reports

Time Latitude Longitude Heading Altitude Ground
Speed
22-May-20 17:29 34.210350 -119.076468 90 79ft 0kts
22-May-20 17:30 34.210647 -119.076023 12 79ft 7kts
22-May-20 17:31 34.210893 -119.081078 268 76ft 15kts
22-May-20 17:32 34.211419 -119.084630 359 73ft 11kts
22-May-20 17:33 34.212771 -119.084617 359 76ft 0kts
22-May-20 17:34 34.212904 -119.084617 359 76ft 8kts
22-May-20 17:35 34.214219 -119.099605 272 467ft 80kts
22-May-20 17:36 34.218809 -119.126128 331 1470ft 87kts
22-May-20 17:37 34.237893 -119.114544 87 2313ft 99kts
22-May-20 17:38 34.237278 -119.080724 91 3114ft 101kts
22-May-20 17:39 34.236460 -119.047050 91 3912ft 99kts
22-May-20 17:39 34.235029 -119.019681 94 4595ft 94kts
22-May-20 17:40 34.233115 -118.991663 94 5513ft 77kts
22-May-20 17:42 34.230425 -118.953592 94 5545ft 101kts
22-May-20 17:42 34.228392 -118.925527 94 5545ft 100kts
22-May-20 17:43 34.226134 -118.892069 83 5543ft 99kts
22-May-20 17:45 34.249127 -118.865787 37 5545ft 99kts
22-May-20 17:45 34.266178 -118.846990 57 5542ft 100kts
22-May-20 17:46 34.269290 -118.813950 87 5545ft 99kts
22-May-20 17:47 34.270228 -118.780276 87 5545ft 100kts
22-May-20 17:48 34.271134 -118.746640 87 5545ft 100kts
22-May-20 17:49 34.272013 -118.712865 88 5545ft 100kts
22-May-20 17:50 34.272856 -118.679280 88 5545ft 99kts
22-May-20 17:51 34.273662 -118.645943 88 5545ft 99kts
22-May-20 17:52 34.274273 -118.612546 96 5544ft 99kts
22-May-20 17:53 34.254635 -118.590024 146 5545ft 100kts
22-May-20 17:54 34.231030 -118.575367 154 5544ft 92kts
22-May-20 17:55 34.208108 -118.562345 154 5545ft 90kts
22-May-20 17:56 34.185573 -118.549580 154 5545ft 89kts
22-May-20 17:57 34.162996 -118.537136 157 5545ft 89kts
22-May-20 17:58 34.139557 -118.527554 164 5545ft 89kts
22-May-20 17:59 34.115726 -118.519601 161 5545ft 89kts
22-May-20 18:00 34.092131 -118.510449 161 5545ft 89kts
22-May-20 18:01 34.069229 -118.499286 154 5545ft 89kts
22-May-20 18:02 34.046705 -118.486771 154 5545ft 89kts
22-May-20 18:03 34.024223 -118.474319 155 5545ft 89kts
22-May-20 18:04 34.001122 -118.463406 160 5545ft 89kts
22-May-20 18:05 33.977774 -118.453432 160 5545ft 89kts
22-May-20 18:06 33.954430 -118.443275 157 5545ft 89kts
22-May-20 18:07 33.931548 -118.431900 155 5545ft 89kts
22-May-20 18:08 33.914273 -118.410968 139 5545ft 89kts
22-May-20 18:09 33.894922 -118.392304 138 5545ft 89kts
22-May-20 18:10 33.876063 -118.372830 138 5545ft 89kts
22-May-20 18:11 33.857208 -118.353409 139 5545ft 89kts
22-May-20 18:12 33.838833 -118.334527 139 5545ft 89kts
22-May-20 18:13 33.820336 -118.314530 137 5545ft 89kts
22-May-20 18:14 33.802574 -118.293772 134 5545ft 89kts
22-May-20 18:15 33.785070 -118.272481 134 5545ft 89kts
22-May-20 18:16 33.767589 -118.251268 134 5545ft 89kts
22-May-20 18:17 33.749441 -118.230918 139 5545ft 89kts
22-May-20 18:18 33.735996 -118.205868 120 5545ft 89kts
22-May-20 18:19 33.721845 -118.181348 127 5545ft 89kts
22-May-20 18:20 33.706584 -118.157847 128 5545ft 89kts
22-May-20 18:21 33.690036 -118.135452 134 5545ft 89kts
22-May-20 18:22 33.672730 -118.114015 134 5545ft 89kts
22-May-20 18:23 33.655417 -118.092621 134 5545ft 89kts
22-May-20 18:24 33.642963 -118.068148 95 5545ft 89kts
22-May-20 18:25 33.640712 -118.038432 95 5545ft 89kts
22-May-20 18:26 33.638446 -118.008633 95 5545ft 89kts
22-May-20 18:27 33.636159 -117.978938 95 5545ft 89kts
22-May-20 18:28 33.634003 -117.951400 95 5101ft 80kts
22-May-20 18:29 33.648245 -117.925298 47 3835ft 100kts
22-May-20 18:30 33.666353 -117.905457 37 2691ft 79kts
22-May-20 18:31 33.682135 -117.887294 41 1437ft 76kts
22-May-20 18:32 33.698360 -117.871250 34 1296ft 75kts
22-May-20 18:33 33.690718 -117.859198 213 403ft 76kts
22-May-20 18:34 33.676250 -117.868511 207 60ft 33kts
22-May-20 18:35 33.675978 -117.869820 299 60ft 0kts
22-May-20 18:36 33.676271 -117.870864 252 60ft 0kts

Navigation Log

Ident Type
Flight plan parsing failed, navigation log unavailable